sensor_id;sensor_type;location;lat;lon;timestamp;temperature;humidity
70830;SHT30;58451;51.550;7.208;2023-02-28T00:00:05;-1.23;76.12
70830;SHT30;58451;51.550;7.208;2023-02-28T00:01:44;-1.24;76.07
70830;SHT30;58451;51.550;7.208;2023-02-28T00:03:16;-1.27;76.10
70830;SHT30;58451;51.550;7.208;2023-02-28T00:04:49;-1.30;76.10
70830;SHT30;58451;51.550;7.208;2023-02-28T00:06:24;-1.32;76.08
70830;SHT30;58451;51.550;7.208;2023-02-28T00:07:56;-1.34;76.12
70830;SHT30;58451;51.550;7.208;2023-02-28T00:09:28;-1.35;76.10
70830;SHT30;58451;51.550;7.208;2023-02-28T00:11:03;-1.38;76.12
70830;SHT30;58451;51.550;7.208;2023-02-28T00:12:44;-1.39;76.13
70830;SHT30;58451;51.550;7.208;2023-02-28T00:14:16;-1.40;76.18
70830;SHT30;58451;51.550;7.208;2023-02-28T00:15:57;-1.43;76.23
70830;SHT30;58451;51.550;7.208;2023-02-28T00:17:35;-1.43;76.23
70830;SHT30;58451;51.550;7.208;2023-02-28T00:19:07;-1.43;76.27
70830;SHT30;58451;51.550;7.208;2023-02-28T00:20:39;-1.44;76.27
70830;SHT30;58451;51.550;7.208;2023-02-28T00:22:11;-1.45;76.35
70830;SHT30;58451;51.550;7.208;2023-02-28T00:23:43;-1.46;76.35
70830;SHT30;58451;51.550;7.208;2023-02-28T00:25:16;-1.46;76.50
70830;SHT30;58451;51.550;7.208;2023-02-28T00:26:51;-1.46;76.48
70830;SHT30;58451;51.550;7.208;2023-02-28T00:28:23;-1.46;76.55
70830;SHT30;58451;51.550;7.208;2023-02-28T00:29:56;-1.46;76.63
70830;SHT30;58451;51.550;7.208;2023-02-28T00:31:27;-1.47;76.70
70830;SHT30;58451;51.550;7.208;2023-02-28T00:33:00;-1.48;76.73
70830;SHT30;58451;51.550;7.208;2023-02-28T00:34:32;-1.48;76.80
70830;SHT30;58451;51.550;7.208;2023-02-28T00:36:10;-1.50;76.80
70830;SHT30;58451;51.550;7.208;2023-02-28T00:37:43;-1.50;76.88
70830;SHT30;58451;51.550;7.208;2023-02-28T00:39:19;-1.52;76.90
70830;SHT30;58451;51.550;7.208;2023-02-28T00:40:52;-1.54;76.93
70830;SHT30;58451;51.550;7.208;2023-02-28T00:42:24;-1.55;76.97
70830;SHT30;58451;51.550;7.208;2023-02-28T00:43:57;-1.58;77.00
70830;SHT30;58451;51.550;7.208;2023-02-28T00:45:29;-1.58;77.03
70830;SHT30;58451;51.550;7.208;2023-02-28T00:47:02;-1.59;77.08
70830;SHT30;58451;51.550;7.208;2023-02-28T00:48:34;-1.61;77.15
70830;SHT30;58451;51.550;7.208;2023-02-28T00:50:07;-1.60;77.25
70830;SHT30;58451;51.550;7.208;2023-02-28T00:51:41;-1.60;77.25
70830;SHT30;58451;51.550;7.208;2023-02-28T00:53:13;-1.60;77.30
70830;SHT30;58451;51.550;7.208;2023-02-28T00:54:45;-1.61;77.32
70830;SHT30;58451;51.550;7.208;2023-02-28T00:56:18;-1.60;77.32
70830;SHT30;58451;51.550;7.208;2023-02-28T00:57:51;-1.60;77.33
70830;SHT30;58451;51.550;7.208;2023-02-28T00:59:23;-1.60;77.42
70830;SHT30;58451;51.550;7.208;2023-02-28T01:00:55;-1.59;77.35
70830;SHT30;58451;51.550;7.208;2023-02-28T01:02:27;-1.59;77.33
70830;SHT30;58451;51.550;7.208;2023-02-28T01:03:59;-1.59;77.43
70830;SHT30;58451;51.550;7.208;2023-02-28T01:05:31;-1.58;77.40
70830;SHT30;58451;51.550;7.208;2023-02-28T01:07:03;-1.58;77.35
70830;SHT30;58451;51.550;7.208;2023-02-28T01:08:34;-1.59;77.28
70830;SHT30;58451;51.550;7.208;2023-02-28T01:10:07;-1.60;77.25
70830;SHT30;58451;51.550;7.208;2023-02-28T01:11:40;-1.61;77.28
70830;SHT30;58451;51.550;7.208;2023-02-28T01:13:15;-1.63;77.25
70830;SHT30;58451;51.550;7.208;2023-02-28T01:14:48;-1.63;77.33
70830;SHT30;58451;51.550;7.208;2023-02-28T01:16:20;-1.63;77.42
70830;SHT30;58451;51.550;7.208;2023-02-28T01:17:53;-1.64;77.40
70830;SHT30;58451;51.550;7.208;2023-02-28T01:19:28;-1.65;77.37
70830;SHT30;58451;51.550;7.208;2023-02-28T01:21:04;-1.66;77.35
70830;SHT30;58451;51.550;7.208;2023-02-28T01:22:38;-1.66;77.40
70830;SHT30;58451;51.550;7.208;2023-02-28T01:24:11;-1.67;77.47
70830;SHT30;58451;51.550;7.208;2023-02-28T01:25:44;-1.68;77.50
70830;SHT30;58451;51.550;7.208;2023-02-28T01:27:16;-1.68;77.52
70830;SHT30;58451;51.550;7.208;2023-02-28T01:28:49;-1.67;77.50
70830;SHT30;58451;51.550;7.208;2023-02-28T01:30:22;-1.70;77.52
70830;SHT30;58451;51.550;7.208;2023-02-28T01:31:55;-1.71;77.48
70830;SHT30;58451;51.550;7.208;2023-02-28T01:33:28;-1.73;77.50
70830;SHT30;58451;51.550;7.208;2023-02-28T01:35:01;-1.75;77.53
70830;SHT30;58451;51.550;7.208;2023-02-28T01:36:33;-1.77;77.52
70830;SHT30;58451;51.550;7.208;2023-02-28T01:38:05;-1.78;77.52
70830;SHT30;58451;51.550;7.208;2023-02-28T01:39:52;-1.80;77.50
70830;SHT30;58451;51.550;7.208;2023-02-28T01:41:26;-1.83;77.53
70830;SHT30;58451;51.550;7.208;2023-02-28T01:43:07;-1.85;77.55
70830;SHT30;58451;51.550;7.208;2023-02-28T01:45:04;-1.88;77.50
70830;SHT30;58451;51.550;7.208;2023-02-28T01:46:56;-1.92;77.52
70830;SHT30;58451;51.550;7.208;2023-02-28T01:48:34;-1.95;77.53
70830;SHT30;58451;51.550;7.208;2023-02-28T01:50:11;-1.99;77.53
70830;SHT30;58451;51.550;7.208;2023-02-28T01:51:50;-2.03;77.53
70830;SHT30;58451;51.550;7.208;2023-02-28T01:53:30;-2.07;77.62
70830;SHT30;58451;51.550;7.208;2023-02-28T01:55:08;-2.11;77.57
70830;SHT30;58451;51.550;7.208;2023-02-28T01:56:50;-2.15;77.65
70830;SHT30;58451;51.550;7.208;2023-02-28T01:58:41;-2.18;77.63
70830;SHT30;58451;51.550;7.208;2023-02-28T02:00:16;-2.20;77.68
70830;SHT30;58451;51.550;7.208;2023-02-28T02:01:53;-2.22;77.68
70830;SHT30;58451;51.550;7.208;2023-02-28T02:03:26;-2.26;77.77
70830;SHT30;58451;51.550;7.208;2023-02-28T02:05:00;-2.27;77.78
70830;SHT30;58451;51.550;7.208;2023-02-28T02:06:49;-2.31;77.80
70830;SHT30;58451;51.550;7.208;2023-02-28T02:08:21;-2.33;77.85
70830;SHT30;58451;51.550;7.208;2023-02-28T02:10:01;-2.34;77.87
70830;SHT30;58451;51.550;7.208;2023-02-28T02:11:42;-2.37;77.88
70830;SHT30;58451;51.550;7.208;2023-02-28T02:15:22;-2.44;77.93
70830;SHT30;58451;51.550;7.208;2023-02-28T02:19:41;-2.49;78.05
70830;SHT30;58451;51.550;7.208;2023-02-28T02:26:27;-2.66;78.00
70830;SHT30;58451;51.550;7.208;2023-02-28T02:36:33;-2.76;78.22
70830;SHT30;58451;51.550;7.208;2023-02-28T02:41:59;-2.82;78.37
70830;SHT30;58451;51.550;7.208;2023-02-28T02:45:25;-2.86;78.50
70830;SHT30;58451;51.550;7.208;2023-02-28T02:47:22;-2.87;78.50
70830;SHT30;58451;51.550;7.208;2023-02-28T02:49:04;-2.87;78.57
70830;SHT30;58451;51.550;7.208;2023-02-28T02:50:51;-2.88;78.60
70830;SHT30;58451;51.550;7.208;2023-02-28T02:52:30;-2.88;78.70
70830;SHT30;58451;51.550;7.208;2023-02-28T02:56:08;-2.88;78.82
70830;SHT30;58451;51.550;7.208;2023-02-28T02:57:48;-2.90;78.90
70830;SHT30;58451;51.550;7.208;2023-02-28T02:59:26;-2.90;78.92
70830;SHT30;58451;51.550;7.208;2023-02-28T03:01:01;-2.91;78.90
70830;SHT30;58451;51.550;7.208;2023-02-28T03:02:36;-2.93;78.98
70830;SHT30;58451;51.550;7.208;2023-02-28T03:04:12;-2.93;79.07
70830;SHT30;58451;51.550;7.208;2023-02-28T03:05:51;-2.93;79.13
70830;SHT30;58451;51.550;7.208;2023-02-28T03:07:23;-2.94;79.12
70830;SHT30;58451;51.550;7.208;2023-02-28T03:08:54;-2.95;79.18
70830;SHT30;58451;51.550;7.208;2023-02-28T03:12:22;-3.00;79.22
70830;SHT30;58451;51.550;7.208;2023-02-28T03:18:08;-3.08;79.30
70830;SHT30;58451;51.550;7.208;2023-02-28T03:20:05;-3.06;79.33
70830;SHT30;58451;51.550;7.208;2023-02-28T03:25:45;-3.12;79.38
70830;SHT30;58451;51.550;7.208;2023-02-28T03:27:30;-3.13;79.40
70830;SHT30;58451;51.550;7.208;2023-02-28T03:29:22;-3.15;79.43
70830;SHT30;58451;51.550;7.208;2023-02-28T03:33:18;-3.19;79.48
70830;SHT30;58451;51.550;7.208;2023-02-28T03:36:53;-3.23;79.58
70830;SHT30;58451;51.550;7.208;2023-02-28T03:38:33;-3.25;79.60
70830;SHT30;58451;51.550;7.208;2023-02-28T03:40:17;-3.27;79.60
70830;SHT30;58451;51.550;7.208;2023-02-28T03:41:59;-3.29;79.62
70830;SHT30;58451;51.550;7.208;2023-02-28T03:43:40;-3.29;79.65
70830;SHT30;58451;51.550;7.208;2023-02-28T03:45:21;-3.32;79.72
70830;SHT30;58451;51.550;7.208;2023-02-28T03:47:00;-3.33;79.75
70830;SHT30;58451;51.550;7.208;2023-02-28T03:48:47;-3.35;79.80
70830;SHT30;58451;51.550;7.208;2023-02-28T03:50:44;-3.36;79.83
70830;SHT30;58451;51.550;7.208;2023-02-28T03:52:21;-3.38;79.80
70830;SHT30;58451;51.550;7.208;2023-02-28T03:54:05;-3.39;79.87
70830;SHT30;58451;51.550;7.208;2023-02-28T03:55:45;-3.40;79.87
70830;SHT30;58451;51.550;7.208;2023-02-28T03:59:25;-3.42;79.90
70830;SHT30;58451;51.550;7.208;2023-02-28T04:01:30;-3.43;79.93
70830;SHT30;58451;51.550;7.208;2023-02-28T04:03:15;-3.45;80.00
70830;SHT30;58451;51.550;7.208;2023-02-28T04:04:47;-3.46;80.00
70830;SHT30;58451;51.550;7.208;2023-02-28T04:06:20;-3.46;80.10
70830;SHT30;58451;51.550;7.208;2023-02-28T04:08:02;-3.46;80.15
70830;SHT30;58451;51.550;7.208;2023-02-28T04:09:37;-3.45;80.17
70830;SHT30;58451;51.550;7.208;2023-02-28T04:12:52;-3.45;80.30
70830;SHT30;58451;51.550;7.208;2023-02-28T04:14:25;-3.44;80.35
70830;SHT30;58451;51.550;7.208;2023-02-28T04:15:57;-3.42;80.37
70830;SHT30;58451;51.550;7.208;2023-02-28T04:17:29;-3.44;80.40
70830;SHT30;58451;51.550;7.208;2023-02-28T04:19:01;-3.43;80.40
70830;SHT30;58451;51.550;7.208;2023-02-28T04:20:36;-3.44;80.45
70830;SHT30;58451;51.550;7.208;2023-02-28T04:22:08;-3.46;80.45
70830;SHT30;58451;51.550;7.208;2023-02-28T04:23:42;-3.48;80.45
70830;SHT30;58451;51.550;7.208;2023-02-28T04:25:13;-3.50;80.47
70830;SHT30;58451;51.550;7.208;2023-02-28T04:26:46;-3.53;80.50
70830;SHT30;58451;51.550;7.208;2023-02-28T04:28:22;-3.54;80.53
70830;SHT30;58451;51.550;7.208;2023-02-28T04:29:54;-3.56;80.58
70830;SHT30;58451;51.550;7.208;2023-02-28T04:31:26;-3.57;80.60
70830;SHT30;58451;51.550;7.208;2023-02-28T04:32:59;-3.56;80.63
70830;SHT30;58451;51.550;7.208;2023-02-28T04:34:32;-3.55;80.67
70830;SHT30;58451;51.550;7.208;2023-02-28T04:36:05;-3.56;80.67
70830;SHT30;58451;51.550;7.208;2023-02-28T04:37:39;-3.55;80.70
70830;SHT30;58451;51.550;7.208;2023-02-28T04:39:11;-3.55;80.77
70830;SHT30;58451;51.550;7.208;2023-02-28T04:40:43;-3.54;80.77
70830;SHT30;58451;51.550;7.208;2023-02-28T04:42:15;-3.54;80.80
70830;SHT30;58451;51.550;7.208;2023-02-28T04:43:47;-3.54;80.88
70830;SHT30;58451;51.550;7.208;2023-02-28T04:45:19;-3.53;80.90
70830;SHT30;58451;51.550;7.208;2023-02-28T04:46:50;-3.53;80.90
70830;SHT30;58451;51.550;7.208;2023-02-28T04:48:26;-3.52;80.90
70830;SHT30;58451;51.550;7.208;2023-02-28T04:50:01;-3.55;80.90
70830;SHT30;58451;51.550;7.208;2023-02-28T04:51:33;-3.54;80.90
70830;SHT30;58451;51.550;7.208;2023-02-28T04:53:05;-3.54;80.93
70830;SHT30;58451;51.550;7.208;2023-02-28T04:54:36;-3.55;80.98
70830;SHT30;58451;51.550;7.208;2023-02-28T04:56:12;-3.56;80.98
70830;SHT30;58451;51.550;7.208;2023-02-28T04:57:47;-3.56;81.02
70830;SHT30;58451;51.550;7.208;2023-02-28T04:59:19;-3.57;81.03
70830;SHT30;58451;51.550;7.208;2023-02-28T05:00:52;-3.57;81.03
70830;SHT30;58451;51.550;7.208;2023-02-28T05:02:25;-3.59;81.00
70830;SHT30;58451;51.550;7.208;2023-02-28T05:03:57;-3.59;81.02
70830;SHT30;58451;51.550;7.208;2023-02-28T05:05:32;-3.60;81.03
70830;SHT30;58451;51.550;7.208;2023-02-28T05:07:04;-3.61;81.10
70830;SHT30;58451;51.550;7.208;2023-02-28T05:08:36;-3.60;81.08
70830;SHT30;58451;51.550;7.208;2023-02-28T05:10:08;-3.61;81.08
70830;SHT30;58451;51.550;7.208;2023-02-28T05:11:42;-3.63;81.08
70830;SHT30;58451;51.550;7.208;2023-02-28T05:13:14;-3.63;81.07
70830;SHT30;58451;51.550;7.208;2023-02-28T05:14:46;-3.63;81.10
70830;SHT30;58451;51.550;7.208;2023-02-28T05:16:18;-3.64;81.15
70830;SHT30;58451;51.550;7.208;2023-02-28T05:17:51;-3.64;81.15
70830;SHT30;58451;51.550;7.208;2023-02-28T05:19:22;-3.65;81.15
70830;SHT30;58451;51.550;7.208;2023-02-28T05:20:54;-3.66;81.20
70830;SHT30;58451;51.550;7.208;2023-02-28T05:22:26;-3.64;81.20
70830;SHT30;58451;51.550;7.208;2023-02-28T05:23:59;-3.64;81.23
70830;SHT30;58451;51.550;7.208;2023-02-28T05:25:35;-3.66;81.20
70830;SHT30;58451;51.550;7.208;2023-02-28T05:27:07;-3.67;81.20
70830;SHT30;58451;51.550;7.208;2023-02-28T05:28:40;-3.68;81.20
70830;SHT30;58451;51.550;7.208;2023-02-28T05:30:12;-3.70;81.20
70830;SHT30;58451;51.550;7.208;2023-02-28T05:31:44;-3.69;81.23
70830;SHT30;58451;51.550;7.208;2023-02-28T05:33:16;-3.72;81.27
70830;SHT30;58451;51.550;7.208;2023-02-28T05:34:48;-3.73;81.20
70830;SHT30;58451;51.550;7.208;2023-02-28T05:36:20;-3.75;81.20
70830;SHT30;58451;51.550;7.208;2023-02-28T05:37:52;-3.78;81.20
70830;SHT30;58451;51.550;7.208;2023-02-28T05:39:24;-3.79;81.17
70830;SHT30;58451;51.550;7.208;2023-02-28T05:40:55;-3.83;81.17
70830;SHT30;58451;51.550;7.208;2023-02-28T05:42:27;-3.87;81.20
70830;SHT30;58451;51.550;7.208;2023-02-28T05:44:00;-3.88;81.20
70830;SHT30;58451;51.550;7.208;2023-02-28T05:45:32;-3.91;81.27
70830;SHT30;58451;51.550;7.208;2023-02-28T05:47:04;-3.91;81.30
70830;SHT30;58451;51.550;7.208;2023-02-28T05:48:37;-3.91;81.30
70830;SHT30;58451;51.550;7.208;2023-02-28T05:50:11;-3.92;81.30
70830;SHT30;58451;51.550;7.208;2023-02-28T05:51:43;-3.94;81.30
70830;SHT30;58451;51.550;7.208;2023-02-28T05:53:15;-3.95;81.30
70830;SHT30;58451;51.550;7.208;2023-02-28T05:54:47;-3.96;81.30
70830;SHT30;58451;51.550;7.208;2023-02-28T05:56:19;-3.96;81.35
70830;SHT30;58451;51.550;7.208;2023-02-28T05:57:50;-3.97;81.38
70830;SHT30;58451;51.550;7.208;2023-02-28T05:59:22;-3.97;81.37
70830;SHT30;58451;51.550;7.208;2023-02-28T06:00:54;-3.97;81.42
70830;SHT30;58451;51.550;7.208;2023-02-28T06:02:26;-3.98;81.52
70830;SHT30;58451;51.550;7.208;2023-02-28T06:03:58;-3.99;81.47
70830;SHT30;58451;51.550;7.208;2023-02-28T06:05:35;-3.98;81.52
70830;SHT30;58451;51.550;7.208;2023-02-28T06:07:07;-3.98;81.57
70830;SHT30;58451;51.550;7.208;2023-02-28T06:08:40;-3.99;81.55
70830;SHT30;58451;51.550;7.208;2023-02-28T06:10:14;-3.98;81.53
70830;SHT30;58451;51.550;7.208;2023-02-28T06:11:46;-3.98;81.55
70830;SHT30;58451;51.550;7.208;2023-02-28T06:13:18;-3.97;81.62
70830;SHT30;58451;51.550;7.208;2023-02-28T06:14:50;-3.96;81.62
70830;SHT30;58451;51.550;7.208;2023-02-28T06:16:22;-3.94;81.63
70830;SHT30;58451;51.550;7.208;2023-02-28T06:17:55;-3.95;81.67
70830;SHT30;58451;51.550;7.208;2023-02-28T06:19:28;-3.94;81.63
70830;SHT30;58451;51.550;7.208;2023-02-28T06:21:01;-3.94;81.63
70830;SHT30;58451;51.550;7.208;2023-02-28T06:22:34;-3.94;81.62
70830;SHT30;58451;51.550;7.208;2023-02-28T06:24:07;-3.94;81.63
70830;SHT30;58451;51.550;7.208;2023-02-28T06:25:40;-3.92;81.65
70830;SHT30;58451;51.550;7.208;2023-02-28T06:27:17;-3.92;81.68
70830;SHT30;58451;51.550;7.208;2023-02-28T06:28:50;-3.91;81.57
70830;SHT30;58451;51.550;7.208;2023-02-28T06:30:24;-3.92;81.60
70830;SHT30;58451;51.550;7.208;2023-02-28T06:32:00;-3.91;81.70
70830;SHT30;58451;51.550;7.208;2023-02-28T06:33:32;-3.88;81.72
70830;SHT30;58451;51.550;7.208;2023-02-28T06:35:05;-3.86;81.77
70830;SHT30;58451;51.550;7.208;2023-02-28T06:36:41;-3.84;81.75
70830;SHT30;58451;51.550;7.208;2023-02-28T06:38:14;-3.81;81.68
70830;SHT30;58451;51.550;7.208;2023-02-28T06:39:45;-3.79;81.65
70830;SHT30;58451;51.550;7.208;2023-02-28T06:41:21;-3.78;81.70
70830;SHT30;58451;51.550;7.208;2023-02-28T06:42:59;-3.75;81.70
70830;SHT30;58451;51.550;7.208;2023-02-28T06:44:31;-3.72;81.72
70830;SHT30;58451;51.550;7.208;2023-02-28T06:46:07;-3.69;81.68
70830;SHT30;58451;51.550;7.208;2023-02-28T06:47:45;-3.66;81.72
70830;SHT30;58451;51.550;7.208;2023-02-28T06:49:17;-3.62;81.68
70830;SHT30;58451;51.550;7.208;2023-02-28T06:50:49;-3.59;81.70
70830;SHT30;58451;51.550;7.208;2023-02-28T06:52:23;-3.54;81.68
70830;SHT30;58451;51.550;7.208;2023-02-28T06:53:55;-3.49;81.72
70830;SHT30;58451;51.550;7.208;2023-02-28T06:55:26;-3.44;81.75
70830;SHT30;58451;51.550;7.208;2023-02-28T06:57:01;-3.38;82.05
70830;SHT30;58451;51.550;7.208;2023-02-28T06:58:33;-3.29;82.22
70830;SHT30;58451;51.550;7.208;2023-02-28T07:00:07;-3.21;82.13
70830;SHT30;58451;51.550;7.208;2023-02-28T07:01:41;-3.16;81.92
70830;SHT30;58451;51.550;7.208;2023-02-28T07:03:13;-3.10;81.78
70830;SHT30;58451;51.550;7.208;2023-02-28T07:04:46;-3.03;81.77
70830;SHT30;58451;51.550;7.208;2023-02-28T07:06:19;-2.97;81.73
70830;SHT30;58451;51.550;7.208;2023-02-28T07:07:55;-2.91;81.70
70830;SHT30;58451;51.550;7.208;2023-02-28T07:09:28;-2.85;81.73
70830;SHT30;58451;51.550;7.208;2023-02-28T07:11:01;-2.77;81.72
70830;SHT30;58451;51.550;7.208;2023-02-28T07:12:33;-2.70;81.68
70830;SHT30;58451;51.550;7.208;2023-02-28T07:14:05;-2.63;81.67
70830;SHT30;58451;51.550;7.208;2023-02-28T07:15:38;-2.57;81.65
70830;SHT30;58451;51.550;7.208;2023-02-28T07:17:14;-2.49;81.68
70830;SHT30;58451;51.550;7.208;2023-02-28T07:18:45;-2.39;81.58
70830;SHT30;58451;51.550;7.208;2023-02-28T07:20:18;-2.25;81.47
70830;SHT30;58451;51.550;7.208;2023-02-28T07:21:49;-1.26;80.75
70830;SHT30;58451;51.550;7.208;2023-02-28T07:23:21;0.15;78.55
70830;SHT30;58451;51.550;7.208;2023-02-28T07:24:54;0.38;78.52
70830;SHT30;58451;51.550;7.208;2023-02-28T07:26:25;0.73;78.87
70830;SHT30;58451;51.550;7.208;2023-02-28T07:27:58;1.26;78.77
70830;SHT30;58451;51.550;7.208;2023-02-28T07:29:30;1.67;78.53
70830;SHT30;58451;51.550;7.208;2023-02-28T07:31:06;1.75;78.63
70830;SHT30;58451;51.550;7.208;2023-02-28T07:32:39;1.64;78.97
70830;SHT30;58451;51.550;7.208;2023-02-28T07:34:11;1.48;79.10
70830;SHT30;58451;51.550;7.208;2023-02-28T07:35:42;1.29;79.02
70830;SHT30;58451;51.550;7.208;2023-02-28T07:37:15;1.14;78.98
70830;SHT30;58451;51.550;7.208;2023-02-28T07:38:47;0.99;78.92
70830;SHT30;58451;51.550;7.208;2023-02-28T07:40:21;0.86;78.87
70830;SHT30;58451;51.550;7.208;2023-02-28T07:41:53;0.75;78.82
70830;SHT30;58451;51.550;7.208;2023-02-28T07:43:29;0.64;78.75
70830;SHT30;58451;51.550;7.208;2023-02-28T07:45:04;0.54;78.78
70830;SHT30;58451;51.550;7.208;2023-02-28T07:46:37;0.46;78.75
70830;SHT30;58451;51.550;7.208;2023-02-28T07:48:11;0.39;78.58
70830;SHT30;58451;51.550;7.208;2023-02-28T07:49:44;0.31;78.45
70830;SHT30;58451;51.550;7.208;2023-02-28T07:51:17;0.25;78.48
70830;SHT30;58451;51.550;7.208;2023-02-28T07:52:49;0.21;78.52
70830;SHT30;58451;51.550;7.208;2023-02-28T07:54:21;0.19;78.60
70830;SHT30;58451;51.550;7.208;2023-02-28T07:56:02;0.12;78.72
70830;SHT30;58451;51.550;7.208;2023-02-28T07:57:35;0.02;78.60
70830;SHT30;58451;51.550;7.208;2023-02-28T07:59:07;-0.01;78.65
70830;SHT30;58451;51.550;7.208;2023-02-28T08:00:40;-0.06;78.68
70830;SHT30;58451;51.550;7.208;2023-02-28T08:02:13;-0.14;78.63
70830;SHT30;58451;51.550;7.208;2023-02-28T08:03:47;-0.12;78.57
70830;SHT30;58451;51.550;7.208;2023-02-28T08:05:19;-0.15;78.53
70830;SHT30;58451;51.550;7.208;2023-02-28T08:06:52;-0.18;78.50
70830;SHT30;58451;51.550;7.208;2023-02-28T08:08:24;-0.19;78.50
70830;SHT30;58451;51.550;7.208;2023-02-28T08:10:00;-0.16;78.43
70830;SHT30;58451;51.550;7.208;2023-02-28T08:11:32;-0.12;78.35
70830;SHT30;58451;51.550;7.208;2023-02-28T08:13:04;-0.02;78.22
70830;SHT30;58451;51.550;7.208;2023-02-28T08:14:36;0.06;78.05
70830;SHT30;58451;51.550;7.208;2023-02-28T08:16:09;0.14;77.95
70830;SHT30;58451;51.550;7.208;2023-02-28T08:17:46;0.22;78.03
70830;SHT30;58451;51.550;7.208;2023-02-28T08:19:18;0.30;78.18
70830;SHT30;58451;51.550;7.208;2023-02-28T08:20:50;0.37;77.95
70830;SHT30;58451;51.550;7.208;2023-02-28T08:22:23;0.43;77.72
70830;SHT30;58451;51.550;7.208;2023-02-28T08:23:55;0.51;77.62
70830;SHT30;58451;51.550;7.208;2023-02-28T08:25:28;0.59;77.68
70830;SHT30;58451;51.550;7.208;2023-02-28T08:27:00;0.68;77.70
70830;SHT30;58451;51.550;7.208;2023-02-28T08:28:31;0.75;77.43
70830;SHT30;58451;51.550;7.208;2023-02-28T08:30:04;0.85;77.32
70830;SHT30;58451;51.550;7.208;2023-02-28T08:31:37;0.94;77.37
70830;SHT30;58451;51.550;7.208;2023-02-28T08:33:09;1.01;76.60
70830;SHT30;58451;51.550;7.208;2023-02-28T08:34:41;1.07;76.43
70830;SHT30;58451;51.550;7.208;2023-02-28T08:36:14;1.15;76.62
70830;SHT30;58451;51.550;7.208;2023-02-28T08:37:50;1.24;76.58
70830;SHT30;58451;51.550;7.208;2023-02-28T08:39:22;1.31;76.22
70830;SHT30;58451;51.550;7.208;2023-02-28T08:40:57;1.36;75.53
70830;SHT30;58451;51.550;7.208;2023-02-28T08:42:35;1.42;74.27
70830;SHT30;58451;51.550;7.208;2023-02-28T08:44:07;1.48;74.78
70830;SHT30;58451;51.550;7.208;2023-02-28T08:45:39;1.53;75.08
70830;SHT30;58451;51.550;7.208;2023-02-28T08:47:11;1.63;75.00
70830;SHT30;58451;51.550;7.208;2023-02-28T08:48:43;1.71;74.00
70830;SHT30;58451;51.550;7.208;2023-02-28T08:50:15;1.76;74.25
70830;SHT30;58451;51.550;7.208;2023-02-28T08:51:47;1.83;74.07
70830;SHT30;58451;51.550;7.208;2023-02-28T08:53:19;1.90;74.22
70830;SHT30;58451;51.550;7.208;2023-02-28T08:54:51;1.97;74.32
70830;SHT30;58451;51.550;7.208;2023-02-28T08:56:23;2.07;73.90
70830;SHT30;58451;51.550;7.208;2023-02-28T08:57:55;2.15;73.78
70830;SHT30;58451;51.550;7.208;2023-02-28T08:59:26;2.24;73.60
70830;SHT30;58451;51.550;7.208;2023-02-28T09:00:58;2.31;73.47
70830;SHT30;58451;51.550;7.208;2023-02-28T09:02:30;2.38;73.62
70830;SHT30;58451;51.550;7.208;2023-02-28T09:04:03;2.45;73.25
70830;SHT30;58451;51.550;7.208;2023-02-28T09:05:35;2.54;73.33
70830;SHT30;58451;51.550;7.208;2023-02-28T09:07:08;2.63;73.17
70830;SHT30;58451;51.550;7.208;2023-02-28T09:08:40;2.71;72.68
70830;SHT30;58451;51.550;7.208;2023-02-28T09:10:12;2.78;72.23
70830;SHT30;58451;51.550;7.208;2023-02-28T09:11:44;2.84;71.32
70830;SHT30;58451;51.550;7.208;2023-02-28T09:13:16;2.87;71.50
70830;SHT30;58451;51.550;7.208;2023-02-28T09:14:50;2.92;71.37
70830;SHT30;58451;51.550;7.208;2023-02-28T09:16:23;3.01;71.37
70830;SHT30;58451;51.550;7.208;2023-02-28T09:17:56;3.10;69.60
70830;SHT30;58451;51.550;7.208;2023-02-28T09:19:28;3.22;70.70
70830;SHT30;58451;51.550;7.208;2023-02-28T09:21:02;3.29;70.05
70830;SHT30;58451;51.550;7.208;2023-02-28T09:22:38;3.33;68.60
70830;SHT30;58451;51.550;7.208;2023-02-28T09:24:10;3.39;69.78
70830;SHT30;58451;51.550;7.208;2023-02-28T09:25:45;3.48;70.23
70830;SHT30;58451;51.550;7.208;2023-02-28T09:27:23;3.59;69.53
70830;SHT30;58451;51.550;7.208;2023-02-28T09:28:55;3.64;66.50
70830;SHT30;58451;51.550;7.208;2023-02-28T09:30:31;3.73;66.98
70830;SHT30;58451;51.550;7.208;2023-02-28T09:32:03;3.83;68.75
70830;SHT30;58451;51.550;7.208;2023-02-28T09:33:37;3.91;68.52
70830;SHT30;58451;51.550;7.208;2023-02-28T09:35:09;3.99;66.22
70830;SHT30;58451;51.550;7.208;2023-02-28T09:36:44;4.05;65.73
70830;SHT30;58451;51.550;7.208;2023-02-28T09:38:17;4.09;64.47
70830;SHT30;58451;51.550;7.208;2023-02-28T09:39:49;4.12;62.40
70830;SHT30;58451;51.550;7.208;2023-02-28T09:42:59;4.24;63.62
70830;SHT30;58451;51.550;7.208;2023-02-28T09:44:33;4.30;64.68
70830;SHT30;58451;51.550;7.208;2023-02-28T09:48:01;4.41;60.15
70830;SHT30;58451;51.550;7.208;2023-02-28T09:49:42;4.47;57.53
70830;SHT30;58451;51.550;7.208;2023-02-28T09:53:27;4.62;62.52
70830;SHT30;58451;51.550;7.208;2023-02-28T09:55:17;4.68;61.60
70830;SHT30;58451;51.550;7.208;2023-02-28T10:06:50;4.95;57.80
70830;SHT30;58451;51.550;7.208;2023-02-28T10:08:28;5.00;58.68
70830;SHT30;58451;51.550;7.208;2023-02-28T10:10:26;5.01;55.95
70830;SHT30;58451;51.550;7.208;2023-02-28T10:12:12;5.04;56.55
70830;SHT30;58451;51.550;7.208;2023-02-28T10:14:01;5.11;55.83
70830;SHT30;58451;51.550;7.208;2023-02-28T10:15:42;5.22;55.97
70830;SHT30;58451;51.550;7.208;2023-02-28T10:17:17;5.35;56.62
70830;SHT30;58451;51.550;7.208;2023-02-28T10:20:37;5.66;55.83
70830;SHT30;58451;51.550;7.208;2023-02-28T10:22:15;5.66;54.07
70830;SHT30;58451;51.550;7.208;2023-02-28T10:24:03;5.71;52.12
70830;SHT30;58451;51.550;7.208;2023-02-28T10:26:12;5.75;53.05
70830;SHT30;58451;51.550;7.208;2023-02-28T10:27:47;5.76;49.80
70830;SHT30;58451;51.550;7.208;2023-02-28T10:29:24;5.84;51.68
70830;SHT30;58451;51.550;7.208;2023-02-28T10:30:57;5.81;53.93
70830;SHT30;58451;51.550;7.208;2023-02-28T10:32:34;5.69;50.32
70830;SHT30;58451;51.550;7.208;2023-02-28T10:34:10;5.72;49.60
70830;SHT30;58451;51.550;7.208;2023-02-28T10:35:44;5.78;51.40
70830;SHT30;58451;51.550;7.208;2023-02-28T10:37:16;5.85;48.60
70830;SHT30;58451;51.550;7.208;2023-02-28T10:38:50;5.81;48.85
70830;SHT30;58451;51.550;7.208;2023-02-28T10:41:54;5.74;51.40
70830;SHT30;58451;51.550;7.208;2023-02-28T10:43:26;5.78;51.42
70830;SHT30;58451;51.550;7.208;2023-02-28T10:45:14;5.72;47.43
70830;SHT30;58451;51.550;7.208;2023-02-28T10:46:49;5.63;46.67
70830;SHT30;58451;51.550;7.208;2023-02-28T10:48:27;5.64;46.95
70830;SHT30;58451;51.550;7.208;2023-02-28T10:50:05;5.59;49.68
70830;SHT30;58451;51.550;7.208;2023-02-28T10:51:38;5.66;48.57
70830;SHT30;58451;51.550;7.208;2023-02-28T10:55:13;5.59;49.32
70830;SHT30;58451;51.550;7.208;2023-02-28T10:58:53;5.70;50.52
70830;SHT30;58451;51.550;7.208;2023-02-28T11:00:33;5.74;50.22
70830;SHT30;58451;51.550;7.208;2023-02-28T11:06:04;5.89;51.38
70830;SHT30;58451;51.550;7.208;2023-02-28T11:07:44;5.99;51.50
70830;SHT30;58451;51.550;7.208;2023-02-28T11:09:33;6.02;50.77
70830;SHT30;58451;51.550;7.208;2023-02-28T11:11:10;6.09;48.80
70830;SHT30;58451;51.550;7.208;2023-02-28T11:12:42;6.13;47.20